createdAt,value
2022-08-07T00:01:44.704Z,101038.44
2022-08-07T00:04:15.856Z,101039.78
2022-08-07T00:06:51.575Z,101039.38
2022-08-07T00:09:22.659Z,101035.25
2022-08-07T00:11:55.877Z,101031.84
2022-08-07T00:14:31.456Z,101036.34
2022-08-07T00:17:02.581Z,101034.81
2022-08-07T00:19:59.969Z,101038.66
2022-08-07T00:22:24.441Z,101033.47
2022-08-07T00:25:15.691Z,101035.88
2022-08-07T00:27:52.509Z,101029.59
2022-08-07T00:30:27.764Z,101035.78
2022-08-07T00:32:58.455Z,101030.47
2022-08-07T00:35:29.630Z,101027.25
2022-08-07T00:38:00.288Z,101025.31
2022-08-07T00:40:36.585Z,101028.97
2022-08-07T00:43:58.689Z,101026.56
2022-08-07T00:46:01.715Z,101031.91
2022-08-07T00:48:32.512Z,101024.59
2022-08-07T00:51:03.121Z,101024.03
2022-08-07T00:53:39.036Z,101030.69
2022-08-07T00:56:19.108Z,101025.22
2022-08-07T00:58:49.791Z,101033.88
2022-08-07T01:01:20.827Z,101028.28
2022-08-07T01:03:56.438Z,101031.28
2022-08-07T01:06:29.662Z,101029.59
2022-08-07T01:09:00.932Z,101025.47
2022-08-07T01:12:08.889Z,101024.31
2022-08-07T01:14:28.307Z,101025.56
2022-08-07T01:16:58.290Z,101022.38
2022-08-07T01:19:32.490Z,101017.00
2022-08-07T01:22:03.461Z,101014.53
2022-08-07T01:24:42.515Z,101018.31
2022-08-07T01:27:19.602Z,101016.09
2022-08-07T01:29:50.767Z,101014.84
2022-08-07T01:32:22.329Z,101006.63
2022-08-07T01:34:55.403Z,101007.53
2022-08-07T01:37:24.140Z,101011.25
2022-08-07T01:39:59.402Z,101011.50
2022-08-07T01:42:38.812Z,101006.22
2022-08-07T01:45:17.850Z,101018.63
2022-08-07T01:48:21.064Z,101013.13
2022-08-07T01:50:46.307Z,101008.31
2022-08-07T01:53:20.918Z,101006.31
2022-08-07T01:56:05.438Z,101011.03
2022-08-07T01:58:41.074Z,101006.53
2022-08-07T02:01:44.771Z,101005.63
2022-08-07T02:04:26.671Z,101004.44
2022-08-07T02:07:03.104Z,101006.72
2022-08-07T02:09:51.631Z,101000.38
2022-08-07T02:12:31.020Z,100999.19
2022-08-07T02:15:06.916Z,101006.47
2022-08-07T02:17:41.662Z,101003.91
2022-08-07T02:20:23.678Z,101009.56
2022-08-07T02:23:00.211Z,101008.66
2022-08-07T02:26:11.399Z,101015.84
2022-08-07T02:28:25.624Z,101020.81
2022-08-07T02:31:19.131Z,101016.47
2022-08-07T02:34:01.620Z,101018.34
2022-08-07T02:36:38.607Z,101020.06
2022-08-07T02:39:17.278Z,101023.72
2022-08-07T02:42:03.562Z,101025.25
2022-08-07T02:44:48.371Z,101019.84
2022-08-07T02:47:23.422Z,101029.41
2022-08-07T02:50:00.412Z,101049.25
2022-08-07T02:52:39.045Z,101034.19
2022-08-07T02:55:28.414Z,101037.44
2022-08-07T02:58:10.141Z,101037.72
2022-08-07T03:00:42.101Z,101033.91
2022-08-07T03:03:22.575Z,101035.56
2022-08-07T03:05:56.661Z,101035.13
2022-08-07T03:08:29.113Z,101044.69
2022-08-07T03:11:01.761Z,101043.38
2022-08-07T03:13:38.677Z,101038.00
2022-08-07T03:16:10.800Z,101034.06
2022-08-07T03:18:40.884Z,101040.66
2022-08-07T03:21:13.925Z,101042.91
2022-08-07T03:24:20.591Z,101045.66
2022-08-07T03:26:51.298Z,101052.50
2022-08-07T03:29:37.526Z,101050.44
2022-08-07T03:32:13.444Z,101053.09
2022-08-07T03:34:47.387Z,101062.28
2022-08-07T03:37:45.922Z,101053.81
2022-08-07T03:40:16.882Z,101055.81
2022-08-07T03:42:46.631Z,101050.56
2022-08-07T03:45:30.229Z,101055.84
2022-08-07T03:48:10.017Z,101056.25
2022-08-07T03:50:43.225Z,101054.53
2022-08-07T03:53:50.122Z,101061.25
2022-08-07T03:56:33.290Z,101063.00
2022-08-07T03:59:09.479Z,101065.72
2022-08-07T04:01:45.576Z,101056.97
2022-08-07T04:04:17.945Z,101081.78
2022-08-07T04:06:51.840Z,101073.88
2022-08-07T04:09:23.683Z,101080.31
2022-08-07T04:12:25.455Z,101075.69
2022-08-07T04:14:49.195Z,101071.28
2022-08-07T04:17:21.901Z,101070.88
2022-08-07T04:19:56.410Z,101073.03
2022-08-07T04:22:30.133Z,101080.47
2022-08-07T04:25:08.882Z,101070.72
2022-08-07T04:27:46.211Z,101068.31
2022-08-07T04:30:43.734Z,101080.75
2022-08-07T04:33:24.762Z,101080.44
2022-08-07T04:35:55.497Z,101070.22
2022-08-07T04:38:29.742Z,101081.09
2022-08-07T04:40:59.699Z,101075.88
2022-08-07T04:44:13.090Z,101083.06
2022-08-07T04:47:04.575Z,101083.16
2022-08-07T04:49:57.835Z,101091.72
2022-08-07T04:52:50.879Z,101080.75
2022-08-07T04:58:09.709Z,101082.13
2022-08-07T04:59:17.479Z,101075.25
2022-08-07T05:01:43.022Z,101077.75
2022-08-07T05:04:17.438Z,101101.50
2022-08-07T05:07:36.870Z,101084.63
2022-08-07T05:10:29.544Z,101083.59
2022-08-07T05:14:44.431Z,101088.47
2022-08-07T05:15:58.640Z,101100.13
2022-08-07T05:18:32.966Z,101093.63
2022-08-07T05:21:05.466Z,101090.56
2022-08-07T05:23:47.694Z,101092.63
2022-08-07T05:26:24.560Z,101094.53
2022-08-07T05:29:05.294Z,101092.16
2022-08-07T05:31:39.864Z,101092.31
2022-08-07T05:34:17.285Z,101092.44
2022-08-07T05:36:52.832Z,101096.28
2022-08-07T05:40:05.753Z,101102.66
2022-08-07T05:42:34.268Z,101095.75
2022-08-07T05:45:25.808Z,101098.16
2022-08-07T05:48:03.654Z,101095.88
2022-08-07T05:50:46.917Z,101096.00
2022-08-07T05:54:12.781Z,101111.84
2022-08-07T05:56:12.368Z,101096.47
2022-08-07T05:58:49.183Z,101101.66
2022-08-07T06:01:35.901Z,101103.84
2022-08-07T06:04:09.508Z,101113.97
2022-08-07T06:06:46.311Z,101105.56
2022-08-07T06:09:17.809Z,101107.38
2022-08-07T06:11:48.984Z,101102.31
2022-08-07T06:14:28.941Z,101109.00
2022-08-07T06:17:07.354Z,101112.06
2022-08-07T06:19:57.614Z,101105.22
2022-08-07T06:22:38.542Z,101105.53
2022-08-07T06:25:34.906Z,101108.59
2022-08-07T06:28:07.409Z,101106.78
2022-08-07T06:30:42.688Z,101115.63
2022-08-07T06:33:19.412Z,101109.22
2022-08-07T06:36:13.488Z,101111.69
2022-08-07T06:38:51.207Z,101118.91
2022-08-07T06:42:02.477Z,101114.44
2022-08-07T06:44:36.787Z,101118.09
2022-08-07T06:47:12.151Z,101121.25
2022-08-07T06:49:52.395Z,101114.16
2022-08-07T06:52:37.670Z,101111.31
2022-08-07T06:55:33.474Z,101120.34
2022-08-07T06:58:10.956Z,101113.00
2022-08-07T07:00:53.912Z,101115.28
2022-08-07T07:03:39.647Z,101111.59
2022-08-07T07:06:13.552Z,101108.22
2022-08-07T07:08:52.980Z,101118.09
2022-08-07T07:12:08.868Z,101121.75
2022-08-07T07:14:14.113Z,101120.38
2022-08-07T07:16:51.066Z,101122.06
2022-08-07T07:19:55.895Z,101117.22
2022-08-07T07:22:36.930Z,101111.41
2022-08-07T07:26:31.280Z,101121.13
2022-08-07T07:28:29.482Z,101122.00
2022-08-07T07:31:01.585Z,101121.13
2022-08-07T07:33:34.416Z,101112.34
2022-08-07T07:36:05.291Z,101122.22
2022-08-07T07:38:36.063Z,101125.28
2022-08-07T07:41:09.387Z,101125.78
2022-08-07T07:44:14.203Z,101122.19
2022-08-07T07:46:54.694Z,101118.16
2022-08-07T07:50:35.772Z,101122.81
2022-08-07T07:52:19.279Z,101118.53
2022-08-07T07:54:50.552Z,101129.59
2022-08-07T07:57:50.296Z,101128.31
2022-08-07T08:00:29.075Z,101127.00
2022-08-07T08:03:08.257Z,101126.75
2022-08-07T08:05:50.786Z,101122.47
2022-08-07T08:08:34.327Z,101120.97
2022-08-07T08:11:16.100Z,101125.72
2022-08-07T08:13:53.909Z,101122.00
2022-08-07T08:16:31.018Z,101122.63
2022-08-07T08:19:17.312Z,101115.31
2022-08-07T08:22:08.108Z,101120.38
2022-08-07T08:25:24.570Z,101119.47
2022-08-07T08:28:04.058Z,101120.75
2022-08-07T08:30:42.623Z,101109.63
2022-08-07T08:33:21.993Z,101109.53
2022-08-07T08:35:56.090Z,101118.72
2022-08-07T08:38:38.131Z,101114.88
2022-08-07T08:41:21.717Z,101110.41
2022-08-07T08:44:09.899Z,101112.72
2022-08-07T08:47:10.005Z,101113.34
2022-08-07T08:50:04.829Z,101108.75
2022-08-07T08:52:40.889Z,101115.38
2022-08-07T08:55:58.579Z,101110.94
2022-08-07T08:58:30.756Z,101111.22
2022-08-07T09:01:16.178Z,101105.50
2022-08-07T09:04:08.749Z,101115.19
2022-08-07T09:07:24.465Z,101107.66
2022-08-07T09:10:17.848Z,101111.13
2022-08-07T09:13:07.287Z,101121.09
2022-08-07T09:16:22.154Z,101103.91
2022-08-07T09:18:34.941Z,101111.72
2022-08-07T09:21:57.705Z,101112.47
2022-08-07T09:24:55.124Z,101114.34
2022-08-07T09:28:00.585Z,101107.97
2022-08-07T09:30:46.746Z,101114.91
2022-08-07T09:33:53.187Z,101107.50
2022-08-07T09:36:37.511Z,101101.28
2022-08-07T09:39:53.988Z,101109.06
2022-08-07T09:42:58.233Z,101099.88
2022-08-07T09:47:50.136Z,101096.44
2022-08-07T09:50:01.257Z,101110.34
2022-08-07T09:52:34.295Z,101100.78
2022-08-07T09:55:29.426Z,101106.72
2022-08-07T09:58:32.389Z,101110.88
2022-08-07T10:01:51.500Z,101098.78
2022-08-07T10:04:38.410Z,101104.25
2022-08-07T10:07:24.470Z,101103.44
2022-08-07T10:10:20.979Z,101096.88
2022-08-07T10:12:53.625Z,101100.59
2022-08-07T10:15:44.597Z,101089.97
2022-08-07T10:18:35.274Z,101091.28
2022-08-07T10:22:14.841Z,101086.22
2022-08-07T10:24:33.663Z,101090.06
2022-08-07T10:27:18.348Z,101092.22
2022-08-07T10:30:07.303Z,101087.72
2022-08-07T10:33:00.054Z,101082.56
2022-08-07T10:36:11.468Z,101083.03
2022-08-07T10:39:04.358Z,101101.75
2022-08-07T10:41:46.495Z,101090.53
2022-08-07T10:44:38.337Z,101093.03
2022-08-07T10:47:16.295Z,101091.31
2022-08-07T10:50:29.145Z,101091.78
2022-08-07T10:53:28.450Z,101094.34
2022-08-07T10:56:33.185Z,101082.34
2022-08-07T10:59:24.661Z,101093.25
2022-08-07T11:02:34.341Z,101091.19
2022-08-07T11:05:21.796Z,101089.22
2022-08-07T11:08:11.938Z,101091.78
2022-08-07T11:10:59.402Z,101097.91
2022-08-07T11:14:45.363Z,101098.38
2022-08-07T11:16:30.702Z,101088.81
2022-08-07T11:19:10.291Z,101093.84
2022-08-07T11:22:33.309Z,101083.06
2022-08-07T11:25:23.511Z,101081.00
2022-08-07T11:28:04.467Z,101078.47
2022-08-07T11:30:49.306Z,101083.50
2022-08-07T11:33:54.354Z,101081.00
2022-08-07T11:36:30.990Z,101084.72
2022-08-07T11:39:39.698Z,101077.59
2022-08-07T11:42:29.770Z,101076.00
2022-08-07T11:45:20.533Z,101072.19
2022-08-07T11:48:18.282Z,101076.03
2022-08-07T11:51:22.893Z,101070.56
2022-08-07T11:54:25.293Z,101068.94
2022-08-07T11:58:00.792Z,101074.75
2022-08-07T12:00:32.172Z,101075.59
2022-08-07T12:03:41.348Z,101067.22
2022-08-07T12:06:38.857Z,101065.44
2022-08-07T12:09:38.354Z,101058.56
2022-08-07T12:12:18.797Z,101062.28
2022-08-07T12:15:00.588Z,101060.09
2022-08-07T12:17:59.479Z,101064.75
2022-08-07T12:20:38.597Z,101060.19
2022-08-07T12:24:07.237Z,101058.56
2022-08-07T12:26:46.595Z,101048.16
2022-08-07T12:29:37.908Z,101053.13
2022-08-07T12:32:15.326Z,101048.13
2022-08-07T12:34:49.148Z,101042.91
2022-08-07T12:37:23.316Z,101041.00
2022-08-07T12:39:55.381Z,101033.09
2022-08-07T12:42:32.035Z,101041.63
2022-08-07T12:45:09.536Z,101034.16
2022-08-07T12:47:54.042Z,101030.06
2022-08-07T12:50:40.360Z,101029.63
2022-08-07T12:54:03.078Z,101033.22
2022-08-07T12:56:55.022Z,101025.72
2022-08-07T12:59:33.031Z,101025.53
2022-08-07T13:02:33.316Z,101023.03
2022-08-07T13:06:04.043Z,101014.00
2022-08-07T13:10:10.945Z,101021.84
2022-08-07T13:12:40.993Z,101018.84
2022-08-07T13:15:29.579Z,101013.22
2022-08-07T13:18:10.970Z,101027.69
2022-08-07T13:21:13.902Z,101022.44
2022-08-07T13:24:04.655Z,101018.63
2022-08-07T13:26:46.231Z,101020.84
2022-08-07T13:29:25.258Z,101027.25
2022-08-07T13:32:15.287Z,101028.31
2022-08-07T13:35:03.250Z,101028.72
2022-08-07T13:37:55.422Z,101033.72
2022-08-07T13:40:34.946Z,101030.75
2022-08-07T13:43:13.826Z,101029.47
2022-08-07T13:46:12.042Z,101034.84
2022-08-07T13:48:39.681Z,101028.53
2022-08-07T13:51:28.153Z,101027.22
2022-08-07T13:54:03.283Z,101029.00
2022-08-07T13:56:40.879Z,101033.50
2022-08-07T13:59:17.881Z,101028.34
2022-08-07T14:02:03.862Z,101040.16
2022-08-07T14:04:48.992Z,101042.97
2022-08-07T14:07:22.816Z,101046.69
2022-08-07T14:10:12.608Z,101043.38
2022-08-07T14:12:56.360Z,101047.03
2022-08-07T14:15:35.112Z,101046.81
2022-08-07T14:18:32.549Z,101040.97
2022-08-07T14:22:01.286Z,101047.38
2022-08-07T14:24:14.033Z,101039.09
2022-08-07T14:26:51.815Z,101041.56
2022-08-07T14:30:05.723Z,101041.06
2022-08-07T14:32:19.140Z,101042.50
2022-08-07T14:34:49.534Z,101049.41
2022-08-07T14:37:39.077Z,101040.47
2022-08-07T14:40:26.574Z,101039.78
2022-08-07T14:43:58.983Z,101042.78
2022-08-07T14:45:57.615Z,101028.03
2022-08-07T14:48:32.632Z,101037.53
2022-08-07T14:54:30.077Z,101047.94
2022-08-07T14:56:50.885Z,101045.50
2022-08-07T15:00:04.311Z,101049.66
2022-08-07T15:05:19.779Z,101043.81
2022-08-07T15:07:51.832Z,101046.41
2022-08-07T15:10:29.647Z,101047.06
2022-08-07T15:13:25.427Z,101042.13
2022-08-07T15:19:00.714Z,101052.56
2022-08-07T15:21:43.730Z,101048.69
2022-08-07T15:27:22.397Z,101051.72
2022-08-07T15:30:10.332Z,101053.97
2022-08-07T15:32:50.883Z,101047.91
2022-08-07T15:36:00.517Z,101051.63
2022-08-07T15:38:51.919Z,101048.22
2022-08-07T15:42:44.164Z,101052.53
2022-08-07T15:44:15.521Z,101056.28
2022-08-07T15:50:04.877Z,101061.91
2022-08-07T15:52:30.006Z,101064.00
2022-08-07T15:55:09.069Z,101057.78
2022-08-07T15:57:48.747Z,101068.94
2022-08-07T16:00:31.662Z,101069.31
2022-08-07T16:03:20.457Z,101061.53
2022-08-07T16:05:53.305Z,101063.09
2022-08-07T16:08:32.552Z,101068.09
2022-08-07T16:11:26.831Z,101067.41
2022-08-07T16:14:22.450Z,101068.06
2022-08-07T16:17:15.961Z,101076.19
2022-08-07T16:19:58.730Z,101077.41
2022-08-07T16:22:38.048Z,101082.44
2022-08-07T16:25:23.266Z,101083.00
2022-08-07T16:30:05.491Z,101083.47
2022-08-07T16:31:58.215Z,101091.72
2022-08-07T16:34:57.210Z,101083.88
2022-08-07T16:38:05.673Z,101088.34
2022-08-07T16:41:02.812Z,101098.38
2022-08-07T16:44:05.604Z,101097.03
2022-08-07T16:47:05.765Z,101097.34
2022-08-07T16:50:20.280Z,101100.06
2022-08-07T16:53:09.820Z,101090.47
2022-08-07T16:55:47.914Z,101100.47
2022-08-07T16:59:02.278Z,101110.59
2022-08-07T17:01:34.288Z,101110.16
2022-08-07T17:04:27.651Z,101124.03
2022-08-07T17:07:28.564Z,101119.63
2022-08-07T17:10:54.373Z,101112.84
2022-08-07T17:14:19.386Z,101119.44
2022-08-07T17:17:04.949Z,101123.75
2022-08-07T17:20:01.913Z,101122.66
2022-08-07T17:23:17.115Z,101119.22
2022-08-07T17:26:04.311Z,101124.03
2022-08-07T17:28:49.687Z,101122.31
2022-08-07T17:31:24.119Z,101126.56
2022-08-07T17:34:34.647Z,101131.34
2022-08-07T17:37:09.830Z,101124.81
2022-08-07T17:40:05.465Z,101137.81
2022-08-07T17:42:58.225Z,101129.81
2022-08-07T17:45:42.199Z,101140.06
2022-08-07T17:48:30.655Z,101146.25
2022-08-07T17:51:02.892Z,101153.47
2022-08-07T17:54:00.079Z,101149.00
2022-08-07T17:56:35.501Z,101149.72
2022-08-07T17:59:10.632Z,101147.19
2022-08-07T18:02:09.130Z,101155.22
2022-08-07T18:05:21.571Z,101146.63
2022-08-07T18:08:23.890Z,101147.31
2022-08-07T18:12:06.698Z,101157.97
2022-08-07T18:14:37.606Z,101159.63
2022-08-07T18:18:33.204Z,101169.06
2022-08-07T18:21:03.778Z,101163.28
2022-08-07T18:23:41.888Z,101164.19
2022-08-07T18:26:05.381Z,101172.28
2022-08-07T18:30:06.950Z,101174.78
2022-08-07T18:32:13.100Z,101186.56
2022-08-07T18:35:05.874Z,101189.34
2022-08-07T18:38:58.723Z,101183.88
2022-08-07T18:40:53.811Z,101202.03
2022-08-07T18:43:57.537Z,101200.25
2022-08-07T18:46:43.094Z,101204.16
2022-08-07T18:50:31.640Z,101202.06
2022-08-07T18:52:41.017Z,101206.59
2022-08-07T18:55:43.305Z,101201.66
2022-08-07T18:58:51.851Z,101202.13
2022-08-07T19:02:18.324Z,101207.84
2022-08-07T19:05:10.031Z,101213.56
2022-08-07T19:08:05.231Z,101210.00
2022-08-07T19:10:49.902Z,101211.47
2022-08-07T19:13:29.265Z,101215.41
2022-08-07T19:17:05.086Z,101210.88
2022-08-07T19:19:28.066Z,101208.91
2022-08-07T19:22:08.267Z,101212.84
2022-08-07T19:24:48.798Z,101222.81
2022-08-07T19:28:58.102Z,101224.06
2022-08-07T19:31:02.940Z,101224.06
2022-08-07T19:33:13.129Z,101223.66
2022-08-07T19:35:55.122Z,101226.72
2022-08-07T19:38:29.052Z,101217.69
2022-08-07T19:41:03.486Z,101220.00
2022-08-07T19:43:49.977Z,101218.75
2022-08-07T19:46:26.622Z,101225.13
2022-08-07T19:49:05.727Z,101225.06
2022-08-07T19:51:53.079Z,101223.78
2022-08-07T19:54:31.146Z,101228.16
2022-08-07T19:58:03.628Z,101232.94
2022-08-07T20:00:10.603Z,101230.59
2022-08-07T20:02:51.849Z,101234.28
2022-08-07T20:05:30.290Z,101228.41
2022-08-07T20:08:31.733Z,101233.59
2022-08-07T20:11:27.011Z,101241.91
2022-08-07T20:14:20.937Z,101235.69
2022-08-07T20:17:02.649Z,101241.03
2022-08-07T20:19:48.234Z,101240.69
2022-08-07T20:22:34.233Z,101243.78
2022-08-07T20:25:19.377Z,101250.44
2022-08-07T20:27:54.378Z,101243.34
2022-08-07T20:30:39.837Z,101249.31
2022-08-07T20:33:36.700Z,101250.56
2022-08-07T20:36:10.150Z,101248.53
2022-08-07T20:38:59.927Z,101243.09
2022-08-07T20:41:34.198Z,101243.44
2022-08-07T20:44:26.237Z,101250.31
2022-08-07T20:47:05.420Z,101250.56
2022-08-07T20:49:59.987Z,101252.97
2022-08-07T20:52:50.404Z,101256.78
2022-08-07T20:55:16.274Z,101261.91
2022-08-07T20:58:02.904Z,101264.03
2022-08-07T21:00:44.683Z,101259.50
2022-08-07T21:03:25.564Z,101261.97
2022-08-07T21:06:28.091Z,101263.88
2022-08-07T21:09:15.118Z,101259.31
2022-08-07T21:11:49.978Z,101257.78
2022-08-07T21:14:33.040Z,101262.75
2022-08-07T21:18:17.525Z,101264.97
2022-08-07T21:20:04.995Z,101277.16
2022-08-07T21:22:51.384Z,101271.94
2022-08-07T21:25:45.030Z,101275.56
2022-08-07T21:28:48.961Z,101268.38
2022-08-07T21:31:49.159Z,101267.50
2022-08-07T21:34:48.987Z,101263.72
2022-08-07T21:37:26.455Z,101254.38
2022-08-07T21:40:36.082Z,101259.69
2022-08-07T21:43:55.976Z,101267.22
2022-08-07T21:46:33.171Z,101268.44
2022-08-07T21:49:27.763Z,101267.91
2022-08-07T21:52:13.617Z,101268.28
2022-08-07T21:55:02.838Z,101268.91
2022-08-07T21:57:44.781Z,101270.03
2022-08-07T22:00:25.462Z,101262.00
2022-08-07T22:03:03.630Z,101269.56
2022-08-07T22:05:48.324Z,101271.03
2022-08-07T22:08:22.022Z,101275.53
2022-08-07T22:11:00.670Z,101265.28
2022-08-07T22:13:51.848Z,101262.97
2022-08-07T22:16:53.675Z,101262.34
2022-08-07T22:19:44.461Z,101262.34
2022-08-07T22:22:29.333Z,101265.16
2022-08-07T22:25:12.124Z,101264.53
2022-08-07T22:28:06.413Z,101252.47
2022-08-07T22:30:55.105Z,101264.19
2022-08-07T22:33:52.598Z,101257.81
2022-08-07T22:36:38.514Z,101248.84
2022-08-07T22:39:39.546Z,101251.13
2022-08-07T22:42:25.963Z,101251.13
2022-08-07T22:45:03.693Z,101254.41
2022-08-07T22:47:38.787Z,101253.19
2022-08-07T22:50:07.495Z,101248.44
2022-08-07T22:52:57.538Z,101251.13
2022-08-07T22:55:46.110Z,101255.44
2022-08-07T22:58:37.604Z,101252.94
2022-08-07T23:01:42.045Z,101249.84
2022-08-07T23:04:58.320Z,101252.72
2022-08-07T23:07:54.086Z,101251.50
2022-08-07T23:10:38.597Z,101246.59
2022-08-07T23:13:48.769Z,101249.06
2022-08-07T23:16:55.401Z,101251.22
2022-08-07T23:19:52.117Z,101247.00
2022-08-07T23:22:32.953Z,101244.09
2022-08-07T23:25:29.478Z,101249.03
2022-08-07T23:28:22.805Z,101265.63
2022-08-07T23:32:49.464Z,101252.59
2022-08-07T23:34:38.273Z,101249.69
2022-08-07T23:37:23.923Z,101245.03
2022-08-07T23:40:30.285Z,101242.09
2022-08-07T23:43:16.704Z,101242.56
2022-08-07T23:46:10.963Z,101237.25
2022-08-07T23:49:24.410Z,101243.28
2022-08-07T23:52:57.952Z,101259.69
2022-08-07T23:55:53.635Z,101269.63
2022-08-07T23:58:44.188Z,101276.63
